Time;durP1;ratioP1;P1;durP2;ratioP2;P2;SDS_P1;SDS_P2;PMS_P1;PMS_P2;Temp;Humidity;BMP_temperature;BMP_pressure;BME280_temperature;BME280_humidity;BME280_pressure;Samples;Min_cycle;Max_cycle;Signal;HPM_P1;HPM_P2
2022/04/25 00:02:24;;;;;;;5.75;2.17;;;;;;;;;;5069142;28;20051;-74
2022/04/25 00:04:50;;;;;;;7.90;2.70;;;;;;;;;;5069580;28;20036;-70
2022/04/25 00:07:16;;;;;;;7.55;2.10;;;;;;;;;;5072473;28;20029;-74
2022/04/25 00:09:42;;;;;;;5.55;1.88;;;;;;;;;;5072581;28;20029;-73
2022/04/25 00:12:08;;;;;;;5.18;2.00;;;;;;;;;;5072507;28;20037;-72
2022/04/25 00:14:33;;;;;;;8.15;2.17;;;;;;;;;;5072710;28;20187;-73
2022/04/25 00:16:59;;;;;;;6.22;2.00;;;;;;;;;;5072514;28;20290;-73
2022/04/25 00:19:25;;;;;;;8.00;2.50;;;;;;;;;;5072230;28;20027;-74
2022/04/25 00:21:51;;;;;;;6.75;2.22;;;;;;;;;;5072135;28;20036;-73
2022/04/25 00:24:20;;;;;;;5.95;2.20;;;;;;;;;;5072339;28;20033;-70
2022/04/25 00:26:45;;;;;;;8.23;2.22;;;;;;;;;;5072286;28;20020;-73
2022/04/25 00:29:12;;;;;;;8.18;2.40;;;;;;;;;;5072132;28;20046;-70
2022/04/25 00:31:38;;;;;;;7.72;2.40;;;;;;;;;;5072364;28;20025;-73
2022/04/25 00:34:03;;;;;;;7.57;2.10;;;;;;;;;;5072199;28;20086;-71
2022/04/25 00:36:29;;;;;;;4.80;2.08;;;;;;;;;;5072577;28;20413;-73
2022/04/25 00:38:54;;;;;;;6.95;1.90;;;;;;;;;;5071745;28;20221;-73
2022/04/25 00:41:20;;;;;;;6.60;2.00;;;;;;;;;;5072132;28;20045;-74
2022/04/25 00:43:45;;;;;;;8.27;1.90;;;;;;;;;;5072023;28;20395;-74
2022/04/25 00:46:21;;;;;;;7.25;2.00;;;;;;;;;;5072032;28;20384;-74
2022/04/25 00:48:48;;;;;;;4.72;1.63;;;;;;;;;;5053641;28;20459;-74
2022/04/25 00:51:14;;;;;;;7.13;1.75;;;;;;;;;;5072019;28;20111;-74
2022/04/25 00:53:39;;;;;;;10.40;1.98;;;;;;;;;;5071716;28;20099;-71
2022/04/25 00:56:07;;;;;;;5.82;1.88;;;;;;;;;;5071954;28;20066;-72
2022/04/25 00:58:33;;;;;;;8.35;1.98;;;;;;;;;;5071420;28;20071;-71
2022/04/25 01:00:59;;;;;;;4.82;1.60;;;;;;;;;;5071460;28;20028;-71
2022/04/25 01:03:25;;;;;;;6.85;1.90;;;;;;;;;;5071594;28;20035;-72
2022/04/25 01:05:50;;;;;;;7.30;1.70;;;;;;;;;;5071879;28;20025;-75
2022/04/25 01:08:16;;;;;;;9.07;1.70;;;;;;;;;;5071439;28;20028;-72
2022/04/25 01:10:43;;;;;;;7.65;1.90;;;;;;;;;;5071617;28;20031;-73
2022/04/25 01:13:11;;;;;;;6.90;1.67;;;;;;;;;;5071127;28;20036;-74
2022/04/25 01:15:37;;;;;;;6.43;1.70;;;;;;;;;;5071539;28;20032;-75
2022/04/25 01:18:02;;;;;;;7.45;1.70;;;;;;;;;;5071076;28;20024;-70
2022/04/25 01:20:27;;;;;;;6.25;1.70;;;;;;;;;;5071480;28;20063;-70
2022/04/25 01:28:37;;;;;;;5.80;1.50;;;;;;;;;;5070972;28;20466;-72
2022/04/25 01:31:02;;;;;;;9.90;1.80;;;;;;;;;;5070939;28;20460;-73
2022/04/25 01:33:28;;;;;;;4.20;1.48;;;;;;;;;;5070885;28;20033;-74
2022/04/25 01:35:53;;;;;;;6.18;1.48;;;;;;;;;;5070933;28;20024;-73
2022/04/25 01:38:19;;;;;;;7.90;1.90;;;;;;;;;;5070846;28;20364;-70
2022/04/25 01:40:44;;;;;;;3.10;1.30;;;;;;;;;;5070991;28;20051;-72
2022/04/25 01:43:09;;;;;;;5.43;1.60;;;;;;;;;;5052676;28;20075;-74
2022/04/25 01:45:35;;;;;;;5.43;1.70;;;;;;;;;;5070796;28;20032;-72
2022/04/25 01:48:00;;;;;;;6.82;1.58;;;;;;;;;;5070529;28;20119;-72
2022/04/25 01:50:26;;;;;;;5.47;1.50;;;;;;;;;;5070648;28;20027;-70
2022/04/25 01:52:51;;;;;;;5.00;1.88;;;;;;;;;;5070885;28;20052;-73
2022/04/25 01:55:17;;;;;;;9.70;1.67;;;;;;;;;;5071022;28;20376;-74
2022/04/25 01:57:43;;;;;;;6.05;1.90;;;;;;;;;;5070819;28;20105;-71
2022/04/25 02:00:09;;;;;;;7.72;1.75;;;;;;;;;;5070144;28;20482;-74
2022/04/25 02:02:36;;;;;;;10.80;1.88;;;;;;;;;;5070593;28;20063;-69
2022/04/25 02:05:03;;;;;;;4.35;1.70;;;;;;;;;;5070169;28;20434;-75
2022/04/25 02:07:29;;;;;;;4.28;1.50;;;;;;;;;;5070417;28;20032;-70
2022/04/25 02:09:54;;;;;;;6.72;1.60;;;;;;;;;;5070259;28;20033;-70
2022/04/25 02:12:21;;;;;;;8.73;2.20;;;;;;;;;;5070474;28;20032;-75
2022/04/25 02:14:47;;;;;;;11.32;2.03;;;;;;;;;;5070092;28;20499;-73
2022/04/25 02:17:13;;;;;;;7.63;1.60;;;;;;;;;;5070579;28;20064;-71
2022/04/25 02:19:39;;;;;;;5.10;1.42;;;;;;;;;;5070144;28;20032;-72
2022/04/25 02:22:06;;;;;;;7.25;1.70;;;;;;;;;;5070547;28;20036;-76
2022/04/25 02:24:32;;;;;;;4.95;1.77;;;;;;;;;;5069870;28;20043;-68
2022/04/25 02:26:57;;;;;;;6.80;1.65;;;;;;;;;;5070115;28;20025;-71
2022/04/25 02:29:22;;;;;;;8.40;1.95;;;;;;;;;;5069353;28;20080;-70
2022/04/25 02:31:48;;;;;;;2.50;1.35;;;;;;;;;;5070287;28;20035;-70
2022/04/25 02:34:14;;;;;;;5.03;1.48;;;;;;;;;;5069844;28;20032;-73
2022/04/25 02:36:40;;;;;;;6.55;1.58;;;;;;;;;;5070185;28;20027;-73
2022/04/25 02:39:05;;;;;;;5.25;1.70;;;;;;;;;;5069727;28;20407;-70
2022/04/25 02:41:31;;;;;;;5.95;1.80;;;;;;;;;;5069682;28;20099;-71
2022/04/25 02:43:56;;;;;;;8.15;2.17;;;;;;;;;;5069931;28;20033;-71
2022/04/25 02:46:22;;;;;;;5.28;1.60;;;;;;;;;;5070166;28;20024;-74
2022/04/25 02:48:48;;;;;;;4.35;1.35;;;;;;;;;;5069912;28;20037;-73
2022/04/25 02:51:15;;;;;;;9.80;1.90;;;;;;;;;;5069984;28;20035;-72
2022/04/25 02:53:41;;;;;;;7.65;1.75;;;;;;;;;;5069840;28;20111;-70
2022/04/25 02:56:07;;;;;;;4.70;1.60;;;;;;;;;;5069895;28;20174;-70
2022/04/25 02:58:34;;;;;;;6.53;1.52;;;;;;;;;;5069842;28;20032;-70
2022/04/25 03:01:01;;;;;;;7.43;2.03;;;;;;;;;;5069418;28;20024;-71
2022/04/25 03:03:26;;;;;;;5.97;1.70;;;;;;;;;;5070317;28;20033;-72
2022/04/25 03:05:53;;;;;;;3.88;1.38;;;;;;;;;;5070053;28;20075;-72
2022/04/25 03:08:23;;;;;;;5.45;1.50;;;;;;;;;;5069943;28;20021;-71
2022/04/25 03:10:51;;;;;;;6.03;1.48;;;;;;;;;;5069417;28;20044;-72
2022/04/25 03:13:17;;;;;;;4.05;1.35;;;;;;;;;;5069616;28;20024;-70
2022/04/25 03:15:46;;;;;;;8.80;1.80;;;;;;;;;;5069454;28;20075;-73
2022/04/25 03:18:13;;;;;;;3.58;1.20;;;;;;;;;;5069693;28;20064;-72
2022/04/25 03:20:41;;;;;;;5.03;1.38;;;;;;;;;;5069412;28;20033;-69
2022/04/25 03:23:07;;;;;;;5.80;1.40;;;;;;;;;;5069596;28;20039;-69
2022/04/25 03:25:33;;;;;;;4.05;1.40;;;;;;;;;;5069320;28;20108;-72
2022/04/25 03:28:00;;;;;;;4.22;1.20;;;;;;;;;;5069754;28;20032;-71
2022/04/25 03:30:25;;;;;;;8.10;1.30;;;;;;;;;;5068990;28;20056;-73
2022/04/25 03:32:51;;;;;;;7.50;1.50;;;;;;;;;;5069906;28;20075;-70
2022/04/25 03:35:18;;;;;;;3.67;1.45;;;;;;;;;;5069163;28;20028;-71
2022/04/25 03:37:45;;;;;;;5.05;1.50;;;;;;;;;;5069947;28;20024;-71
2022/04/25 03:40:11;;;;;;;8.52;1.50;;;;;;;;;;5070198;28;20107;-69
2022/04/25 03:42:37;;;;;;;5.95;1.60;;;;;;;;;;5055605;28;20028;-70
2022/04/25 03:45:04;;;;;;;4.35;1.30;;;;;;;;;;5072907;28;20052;-71
2022/04/25 03:47:32;;;;;;;5.07;1.40;;;;;;;;;;5072947;28;20044;-73
2022/04/25 03:49:57;;;;;;;6.35;1.88;;;;;;;;;;5072483;28;20043;-71
2022/04/25 03:52:23;;;;;;;5.10;1.60;;;;;;;;;;5072992;28;20468;-72
2022/04/25 03:57:32;;;;;;;6.35;1.60;;;;;;;;;;5073027;28;20059;-72
2022/04/25 03:59:57;;;;;;;8.00;1.60;;;;;;;;;;5072326;28;20053;-72
2022/04/25 04:02:23;;;;;;;7.25;1.35;;;;;;;;;;5072640;28;20030;-70
2022/04/25 04:04:49;;;;;;;5.35;1.55;;;;;;;;;;5054434;28;20534;-70
2022/04/25 04:07:15;;;;;;;5.47;1.48;;;;;;;;;;5072938;28;20029;-71
2022/04/25 04:09:50;;;;;;;7.20;1.60;;;;;;;;;;5072379;28;20029;-72
2022/04/25 04:12:18;;;;;;;7.55;1.80;;;;;;;;;;5072877;28;20063;-71
2022/04/25 04:14:44;;;;;;;8.15;1.95;;;;;;;;;;5072408;28;20021;-72
2022/04/25 04:17:10;;;;;;;7.78;2.00;;;;;;;;;;5072611;28;20036;-71
2022/04/25 04:19:38;;;;;;;3.83;1.60;;;;;;;;;;5072307;28;20408;-69
2022/04/25 04:22:04;;;;;;;6.50;1.70;;;;;;;;;;5072298;28;20029;-75
2022/04/25 04:24:34;;;;;;;6.80;1.65;;;;;;;;;;5072248;28;20479;-73
2022/04/25 04:27:03;;;;;;;7.57;2.17;;;;;;;;;;5072383;28;20099;-69
2022/04/25 04:29:29;;;;;;;7.50;2.08;;;;;;;;;;5072092;28;20078;-73
2022/04/25 04:32:02;;;;;;;10.48;2.30;;;;;;;;;;5072623;28;20047;-73
2022/04/25 04:34:29;;;;;;;6.45;2.08;;;;;;;;;;5072441;28;20372;-72
2022/04/25 04:36:55;;;;;;;9.20;1.80;;;;;;;;;;5072171;28;20066;-71
2022/04/25 04:39:21;;;;;;;7.68;2.15;;;;;;;;;;5072144;28;20039;-74
2022/04/25 04:41:46;;;;;;;8.68;1.80;;;;;;;;;;5071575;28;20053;-70
2022/04/25 04:44:12;;;;;;;5.68;1.92;;;;;;;;;;5071909;28;20081;-70
2022/04/25 04:46:38;;;;;;;6.97;1.98;;;;;;;;;;5071930;28;20434;-71
2022/04/25 04:49:04;;;;;;;7.45;2.67;;;;;;;;;;5072163;28;20112;-73
2022/04/25 04:51:29;;;;;;;7.72;1.92;;;;;;;;;;5071151;28;20047;-70
2022/04/25 04:53:59;;;;;;;8.48;1.98;;;;;;;;;;5071987;28;20044;-69
2022/04/25 04:56:25;;;;;;;8.93;1.90;;;;;;;;;;5071622;28;20024;-73
2022/04/25 04:58:50;;;;;;;5.53;2.05;;;;;;;;;;5072201;28;20025;-70
2022/04/25 05:01:16;;;;;;;6.38;1.83;;;;;;;;;;5071247;28;20051;-72
2022/04/25 05:03:43;;;;;;;9.55;2.17;;;;;;;;;;5071785;28;20539;-74
2022/04/25 05:06:08;;;;;;;4.40;2.10;;;;;;;;;;5071524;28;20033;-73
2022/04/25 05:08:34;;;;;;;6.97;1.90;;;;;;;;;;5072103;28;20032;-75
2022/04/25 05:10:59;;;;;;;6.93;1.90;;;;;;;;;;5071294;28;20020;-69
2022/04/25 05:13:25;;;;;;;9.68;2.40;;;;;;;;;;5071507;28;20050;-71
2022/04/25 05:15:50;;;;;;;5.50;2.33;;;;;;;;;;5071073;28;20389;-74
2022/04/25 05:18:16;;;;;;;10.75;2.33;;;;;;;;;;5071591;28;20031;-73
2022/04/25 05:20:41;;;;;;;9.68;2.70;;;;;;;;;;5071058;28;20494;-73
2022/04/25 05:23:10;;;;;;;11.48;2.53;;;;;;;;;;5071578;28;20086;-73
2022/04/25 05:25:38;;;;;;;10.98;2.88;;;;;;;;;;5070996;28;20523;-73
2022/04/25 05:28:04;;;;;;;10.73;2.53;;;;;;;;;;5071248;28;20104;-72
2022/04/25 05:30:30;;;;;;;9.43;2.83;;;;;;;;;;5070881;28;20051;-70
2022/04/25 05:32:57;;;;;;;9.65;2.80;;;;;;;;;;5071091;28;20037;-74
2022/04/25 05:35:29;;;;;;;14.18;3.00;;;;;;;;;;5071046;28;20036;-73
2022/04/25 05:37:55;;;;;;;9.82;3.00;;;;;;;;;;5070988;28;20035;-75
2022/04/25 05:40:21;;;;;;;16.40;3.53;;;;;;;;;;5070666;28;20048;-70
2022/04/25 05:42:48;;;;;;;14.50;3.03;;;;;;;;;;5070656;28;20037;-73
2022/04/25 05:45:15;;;;;;;11.38;3.25;;;;;;;;;;5070904;28;20107;-72
2022/04/25 05:47:41;;;;;;;16.40;3.65;;;;;;;;;;5070655;28;20027;-71
2022/04/25 05:52:54;;;;;;;17.80;3.20;;;;;;;;;;5070899;28;20549;-74
2022/04/25 05:55:20;;;;;;;21.63;3.95;;;;;;;;;;5070714;28;20029;-71
2022/04/25 05:57:45;;;;;;;11.35;3.00;;;;;;;;;;5070692;28;20040;-71
2022/04/25 06:00:14;;;;;;;12.02;2.97;;;;;;;;;;5070385;28;20721;-74
2022/04/25 06:02:40;;;;;;;12.55;2.83;;;;;;;;;;5069724;28;20077;-73
2022/04/25 06:05:07;;;;;;;12.27;2.80;;;;;;;;;;5070418;28;20321;-71
2022/04/25 06:07:33;;;;;;;12.63;2.67;;;;;;;;;;5070117;28;20028;-73
2022/04/25 06:10:03;;;;;;;13.63;2.47;;;;;;;;;;5052283;28;20504;-73
2022/04/25 06:12:29;;;;;;;12.98;2.08;;;;;;;;;;5070193;28;20396;-70
2022/04/25 06:15:00;;;;;;;20.25;3.17;;;;;;;;;;5070233;28;20043;-73
2022/04/25 06:17:26;;;;;;;13.05;2.63;;;;;;;;;;5070280;28;20115;-75
2022/04/25 06:19:52;;;;;;;10.52;2.20;;;;;;;;;;5070272;28;20055;-71
2022/04/25 06:22:19;;;;;;;14.57;2.30;;;;;;;;;;5069881;28;20040;-69
2022/04/25 06:24:44;;;;;;;9.27;2.25;;;;;;;;;;5070122;28;20028;-73
2022/04/25 06:27:10;;;;;;;7.25;1.88;;;;;;;;;;5069828;28;20029;-72
2022/04/25 06:29:35;;;;;;;6.65;2.05;;;;;;;;;;5050617;28;20028;-72
2022/04/25 06:32:05;;;;;;;8.15;2.13;;;;;;;;;;5069520;28;20029;-70
2022/04/25 06:34:32;;;;;;;11.65;2.30;;;;;;;;;;5070247;28;20031;-73
2022/04/25 06:36:57;;;;;;;10.85;2.20;;;;;;;;;;5069439;28;20067;-70
2022/04/25 06:39:23;;;;;;;8.35;2.25;;;;;;;;;;5069383;28;20063;-70
2022/04/25 06:41:48;;;;;;;11.35;2.00;;;;;;;;;;5068156;28;20512;-71
2022/04/25 06:44:14;;;;;;;10.75;2.35;;;;;;;;;;5069855;28;20025;-70
2022/04/25 06:46:39;;;;;;;12.23;2.20;;;;;;;;;;5069707;28;20051;-72
2022/04/25 06:49:20;;;;;;;13.38;2.60;;;;;;;;;;5070153;28;20070;-71
2022/04/25 06:51:59;;;;;;;10.70;2.35;;;;;;;;;;5069602;28;20028;-75
2022/04/25 06:54:26;;;;;;;9.23;1.80;;;;;;;;;;5070039;28;20025;-73
2022/04/25 06:56:57;;;;;;;9.25;1.85;;;;;;;;;;5069691;28;20248;-73
2022/04/25 06:59:23;;;;;;;14.85;2.47;;;;;;;;;;5069629;28;20021;-73
2022/04/25 07:01:50;;;;;;;10.43;1.80;;;;;;;;;;5069267;28;20025;-74
2022/04/25 07:04:16;;;;;;;9.90;1.77;;;;;;;;;;5069722;28;20025;-72
2022/04/25 07:06:43;;;;;;;9.45;2.10;;;;;;;;;;5069602;28;20463;-73
2022/04/25 07:09:18;;;;;;;11.25;2.25;;;;;;;;;;5069817;28;20024;-74
2022/04/25 07:11:45;;;;;;;9.85;1.98;;;;;;;;;;5069330;28;20025;-75
2022/04/25 07:14:18;;;;;;;11.32;1.98;;;;;;;;;;5052344;28;20424;-75
2022/04/25 07:16:44;;;;;;;6.22;1.70;;;;;;;;;;5073391;28;20024;-74
2022/04/25 07:19:11;;;;;;;13.13;2.20;;;;;;;;;;5073477;28;20023;-75
2022/04/25 07:29:49;;;;;;;8.05;2.20;;;;;;;;;;5073654;28;20151;-74
2022/04/25 07:32:15;;;;;;;11.05;1.90;;;;;;;;;;5072936;28;20020;-73
2022/04/25 07:34:41;;;;;;;8.60;1.85;;;;;;;;;;5073458;28;20030;-75
2022/04/25 07:37:07;;;;;;;8.70;1.50;;;;;;;;;;5072893;28;20163;-72
2022/04/25 07:39:32;;;;;;;7.53;1.70;;;;;;;;;;5066298;28;20115;-73
2022/04/25 07:41:58;;;;;;;9.15;1.75;;;;;;;;;;5072337;28;20163;-73
2022/04/25 07:44:24;;;;;;;8.23;1.60;;;;;;;;;;5072583;28;20025;-74
2022/04/25 07:46:50;;;;;;;7.93;1.65;;;;;;;;;;5070860;28;20021;-74
2022/04/25 07:49:16;;;;;;;8.75;1.88;;;;;;;;;;5072746;28;20515;-74
2022/04/25 07:51:41;;;;;;;8.10;1.70;;;;;;;;;;5072916;28;20025;-74
2022/04/25 07:54:08;;;;;;;6.45;1.73;;;;;;;;;;5074283;28;20335;-79
2022/04/25 07:56:35;;;;;;;6.25;1.45;;;;;;;;;;5081532;28;20024;-74
2022/04/25 07:59:00;;;;;;;10.02;2.33;;;;;;;;;;5075807;28;20461;-74
2022/04/25 08:01:27;;;;;;;8.32;2.05;;;;;;;;;;5073611;28;20025;-74
2022/04/25 08:03:53;;;;;;;6.57;1.77;;;;;;;;;;5073655;28;20032;-75
2022/04/25 08:06:20;;;;;;;10.05;1.80;;;;;;;;;;5071922;28;20079;-76
2022/04/25 08:08:48;;;;;;;8.00;1.77;;;;;;;;;;5070724;28;20036;-75
2022/04/25 08:11:13;;;;;;;8.98;1.70;;;;;;;;;;5074970;28;20427;-74
2022/04/25 08:19:06;;;;;;;11.00;1.60;;;;;;;;;;5072930;28;20040;-72
2022/04/25 08:21:32;;;;;;;8.13;1.85;;;;;;;;;;5071963;28;20025;-72
2022/04/25 08:23:58;;;;;;;8.93;1.80;;;;;;;;;;5071079;28;20025;-75
2022/04/25 08:26:25;;;;;;;9.68;1.73;;;;;;;;;;5073065;28;20056;-75
2022/04/25 08:28:51;;;;;;;7.15;1.63;;;;;;;;;;5072176;28;20024;-74
2022/04/25 08:31:17;;;;;;;7.30;1.80;;;;;;;;;;5072081;28;20027;-73
2022/04/25 08:33:43;;;;;;;7.57;1.80;;;;;;;;;;5071771;28;20040;-74
2022/04/25 08:36:09;;;;;;;4.93;1.67;;;;;;;;;;5072096;28;20025;-74
2022/04/25 08:38:34;;;;;;;6.60;1.63;;;;;;;;;;5071929;28;20028;-73
2022/04/25 08:41:01;;;;;;;5.55;1.75;;;;;;;;;;5071549;28;20070;-73
2022/04/25 08:43:30;;;;;;;8.68;1.65;;;;;;;;;;5071469;28;20680;-73
2022/04/25 08:45:56;;;;;;;8.10;1.50;;;;;;;;;;5071335;28;20063;-74
2022/04/25 08:48:24;;;;;;;7.95;1.98;;;;;;;;;;5071549;28;20056;-73
2022/04/25 08:50:51;;;;;;;10.35;1.70;;;;;;;;;;5071804;28;20025;-72
2022/04/25 08:53:17;;;;;;;8.70;1.52;;;;;;;;;;5071448;28;20488;-73
2022/04/25 08:55:43;;;;;;;6.80;1.60;;;;;;;;;;5071579;28;20020;-73
2022/04/25 08:58:10;;;;;;;5.80;1.90;;;;;;;;;;5071289;28;20056;-73
2022/04/25 09:00:36;;;;;;;8.35;1.60;;;;;;;;;;5071137;28;20020;-74
2022/04/25 09:03:01;;;;;;;4.75;1.42;;;;;;;;;;5070674;28;20062;-74
2022/04/25 09:05:27;;;;;;;6.53;1.65;;;;;;;;;;5075454;28;20028;-74
2022/04/25 09:07:53;;;;;;;7.97;2.08;;;;;;;;;;5072867;28;20029;-73
2022/04/25 09:10:20;;;;;;;5.57;1.50;;;;;;;;;;5069686;28;20025;-72
2022/04/25 09:12:47;;;;;;;9.80;1.83;;;;;;;;;;5074956;28;20086;-72
2022/04/25 09:15:17;;;;;;;3.67;1.50;;;;;;;;;;5071414;28;20021;-71
2022/04/25 09:17:42;;;;;;;5.95;1.45;;;;;;;;;;5069157;28;20028;-71
2022/04/25 09:20:09;;;;;;;7.93;1.67;;;;;;;;;;5068508;28;20032;-71
2022/04/25 09:22:39;;;;;;;8.60;1.80;;;;;;;;;;5082445;28;20028;-72
2022/04/25 09:25:11;;;;;;;7.30;1.63;;;;;;;;;;5077323;28;20102;-70
2022/04/25 09:27:39;;;;;;;4.50;1.45;;;;;;;;;;5073154;28;20503;-73
2022/04/25 09:30:19;;;;;;;8.35;1.65;;;;;;;;;;5073585;28;20082;-73
2022/04/25 09:32:46;;;;;;;9.70;1.77;;;;;;;;;;5070779;28;20029;-73
2022/04/25 09:35:30;;;;;;;6.97;1.70;;;;;;;;;;5070121;28;20028;-74
2022/04/25 09:37:57;;;;;;;7.07;1.65;;;;;;;;;;5063629;28;20027;-74
2022/04/25 09:40:25;;;;;;;6.97;1.60;;;;;;;;;;5066458;28;20041;-70
2022/04/25 09:43:07;;;;;;;4.53;1.30;;;;;;;;;;5069966;28;20031;-74
2022/04/25 09:45:34;;;;;;;9.77;1.60;;;;;;;;;;5060341;28;20048;-72
2022/04/25 09:47:59;;;;;;;6.97;1.60;;;;;;;;;;5070552;28;20063;-73
2022/04/25 09:50:28;;;;;;;7.90;1.60;;;;;;;;;;5068986;28;20473;-73
2022/04/25 09:52:57;;;;;;;7.20;1.50;;;;;;;;;;5064470;28;20024;-72
2022/04/25 09:55:25;;;;;;;8.07;1.52;;;;;;;;;;5070202;28;20031;-75
2022/04/25 09:57:50;;;;;;;5.82;1.75;;;;;;;;;;5059870;28;20033;-72
2022/04/25 10:00:33;;;;;;;6.13;1.80;;;;;;;;;;5070264;28;20034;-66
2022/04/25 10:03:00;;;;;;;4.22;1.30;;;;;;;;;;5073946;28;20036;-65
2022/04/25 10:05:46;;;;;;;7.20;1.90;;;;;;;;;;5077095;28;20159;-65
2022/04/25 10:08:14;;;;;;;5.25;1.63;;;;;;;;;;5090183;28;20016;-69
2022/04/25 10:10:44;;;;;;;8.63;2.30;;;;;;;;;;5089822;28;20032;-78
2022/04/25 10:13:10;;;;;;;5.38;1.90;;;;;;;;;;5090420;28;20032;-66
2022/04/25 10:15:37;;;;;;;5.47;1.88;;;;;;;;;;5085005;28;20029;-76
2022/04/25 10:18:05;;;;;;;4.63;1.60;;;;;;;;;;5050233;28;20029;-72
2022/04/25 10:20:31;;;;;;;8.32;1.83;;;;;;;;;;5048899;28;20037;-75
2022/04/25 10:22:57;;;;;;;8.73;1.80;;;;;;;;;;5055588;28;20055;-69
2022/04/25 10:25:22;;;;;;;6.15;1.70;;;;;;;;;;5068322;28;20086;-72
2022/04/25 10:27:49;;;;;;;9.27;1.85;;;;;;;;;;5068298;28;20032;-74
2022/04/25 10:30:17;;;;;;;5.20;1.50;;;;;;;;;;5063596;28;20021;-73
2022/04/25 10:32:43;;;;;;;7.80;1.80;;;;;;;;;;5063561;28;20059;-76
2022/04/25 10:35:31;;;;;;;8.95;1.40;;;;;;;;;;5068047;28;20563;-75
2022/04/25 10:37:57;;;;;;;8.00;1.92;;;;;;;;;;5068523;28;20549;-72
2022/04/25 10:46:13;;;;;;;5.30;1.48;;;;;;;;;;5071863;28;20114;-75
2022/04/25 10:49:04;;;;;;;5.75;1.25;;;;;;;;;;5069353;28;20025;-74
2022/04/25 10:51:40;;;;;;;4.70;1.42;;;;;;;;;;5069688;28;20020;-77
2022/04/25 10:54:06;;;;;;;4.00;1.20;;;;;;;;;;5069778;28;20078;-73
2022/04/25 10:56:32;;;;;;;5.68;1.30;;;;;;;;;;5051549;28;20024;-76
2022/04/25 10:59:26;;;;;;;5.22;1.33;;;;;;;;;;5069543;28;20024;-73
2022/04/25 11:01:53;;;;;;;5.68;1.40;;;;;;;;;;5069542;28;20024;-70
2022/04/25 11:04:20;;;;;;;3.72;1.10;;;;;;;;;;5071498;28;20052;-74
2022/04/25 11:07:20;;;;;;;5.32;1.25;;;;;;;;;;5070202;28;20035;-71
2022/04/25 11:09:45;;;;;;;4.80;1.10;;;;;;;;;;5060649;28;20024;-71
2022/04/25 11:12:11;;;;;;;5.95;1.45;;;;;;;;;;5069541;28;20027;-72
2022/04/25 11:14:36;;;;;;;4.97;1.33;;;;;;;;;;5069241;28;20044;-72
2022/04/25 11:17:11;;;;;;;4.20;1.23;;;;;;;;;;5069551;28;20028;-72
2022/04/25 11:19:56;;;;;;;4.63;1.20;;;;;;;;;;5069223;28;20025;-71
2022/04/25 11:22:42;;;;;;;6.30;1.33;;;;;;;;;;5069290;28;20021;-71
2022/04/25 11:25:39;;;;;;;4.75;1.17;;;;;;;;;;5050769;28;20114;-74
2022/04/25 11:28:08;;;;;;;6.72;1.60;;;;;;;;;;5049834;28;20120;-72
2022/04/25 11:30:33;;;;;;;4.50;1.10;;;;;;;;;;5069006;28;20151;-73
2022/04/25 11:33:03;;;;;;;7.88;1.30;;;;;;;;;;5069594;28;20099;-76
2022/04/25 11:35:28;;;;;;;3.50;1.00;;;;;;;;;;5069409;28;20067;-71
2022/04/25 11:37:57;;;;;;;6.82;1.25;;;;;;;;;;5069446;28;20040;-75
2022/04/25 11:40:23;;;;;;;4.20;1.17;;;;;;;;;;5069513;28;20116;-72
2022/04/25 11:42:49;;;;;;;5.40;1.20;;;;;;;;;;5069250;28;20409;-72
2022/04/25 11:45:14;;;;;;;3.47;1.20;;;;;;;;;;5068969;28;20040;-72
2022/04/25 11:47:40;;;;;;;7.07;1.23;;;;;;;;;;5069475;28;20017;-72
2022/04/25 11:50:07;;;;;;;3.50;1.20;;;;;;;;;;5069112;28;20024;-73
2022/04/25 11:52:33;;;;;;;5.72;1.48;;;;;;;;;;5069317;28;20025;-71
2022/04/25 11:54:59;;;;;;;5.28;1.25;;;;;;;;;;5069266;28;20027;-72
2022/04/25 11:57:25;;;;;;;5.45;1.30;;;;;;;;;;5069476;28;20050;-72
2022/04/25 12:00:17;;;;;;;4.15;1.00;;;;;;;;;;5068795;28;20399;-71
2022/04/25 12:02:44;;;;;;;4.38;1.20;;;;;;;;;;5072262;28;20502;-72
2022/04/25 12:05:10;;;;;;;5.40;1.40;;;;;;;;;;5072742;28;20035;-73
2022/04/25 12:07:37;;;;;;;6.47;1.40;;;;;;;;;;5072567;28;20035;-72
2022/04/25 12:15:38;;;;;;;5.53;1.35;;;;;;;;;;5072455;28;20044;-72
2022/04/25 12:18:27;;;;;;;3.00;1.10;;;;;;;;;;5072821;28;20025;-73
2022/04/25 12:21:08;;;;;;;3.63;1.30;;;;;;;;;;5072231;28;20483;-74
2022/04/25 12:23:39;;;;;;;4.72;1.40;;;;;;;;;;5072376;28;20052;-72
2022/04/25 12:26:06;;;;;;;4.22;1.17;;;;;;;;;;5068867;28;20037;-72
2022/04/25 12:28:34;;;;;;;3.78;1.40;;;;;;;;;;5069724;28;20021;-75
2022/04/25 12:31:07;;;;;;;5.13;1.30;;;;;;;;;;5069691;28;20115;-70
2022/04/25 12:33:38;;;;;;;4.35;1.10;;;;;;;;;;5071330;28;20495;-72
2022/04/25 12:36:27;;;;;;;3.00;1.10;;;;;;;;;;5057428;28;20454;-70
2022/04/25 12:38:52;;;;;;;5.43;1.27;;;;;;;;;;5059406;28;20036;-70
2022/04/25 12:41:21;;;;;;;8.77;1.50;;;;;;;;;;5070550;28;20079;-73
2022/04/25 12:43:49;;;;;;;5.05;1.27;;;;;;;;;;5070048;28;20849;-71
2022/04/25 12:46:34;;;;;;;9.13;1.42;;;;;;;;;;5070682;28;20028;-72
2022/04/25 12:49:03;;;;;;;6.72;1.30;;;;;;;;;;5071002;28;20032;-72
2022/04/25 12:51:40;;;;;;;7.45;1.25;;;;;;;;;;5070670;28;20020;-71
2022/04/25 12:54:27;;;;;;;4.43;1.17;;;;;;;;;;5058786;28;20027;-71
2022/04/25 12:57:05;;;;;;;3.25;1.20;;;;;;;;;;5070743;28;20063;-71
2022/04/25 12:59:33;;;;;;;3.72;1.10;;;;;;;;;;5070220;28;20017;-72
2022/04/25 13:02:07;;;;;;;8.38;1.30;;;;;;;;;;5070122;28;20120;-72
2022/04/25 13:04:48;;;;;;;4.63;1.58;;;;;;;;;;5070384;28;20121;-71
2022/04/25 13:07:13;;;;;;;4.53;1.27;;;;;;;;;;5070636;28;20086;-71
2022/04/25 13:09:39;;;;;;;5.35;1.20;;;;;;;;;;5070579;28;20029;-71
2022/04/25 13:12:12;;;;;;;5.05;1.52;;;;;;;;;;5069825;28;20021;-71
2022/04/25 13:14:37;;;;;;;5.47;1.73;;;;;;;;;;5069952;28;20099;-71
2022/04/25 13:17:03;;;;;;;5.75;1.50;;;;;;;;;;5070254;28;20429;-72
2022/04/25 13:19:29;;;;;;;6.13;1.40;;;;;;;;;;5071922;28;20020;-71
2022/04/25 13:21:54;;;;;;;4.85;1.42;;;;;;;;;;5076850;28;20062;-71
2022/04/25 13:24:19;;;;;;;4.80;1.70;;;;;;;;;;5056966;28;20388;-70
2022/04/25 13:26:45;;;;;;;3.47;1.33;;;;;;;;;;5070123;28;20024;-71
2022/04/25 13:29:10;;;;;;;6.78;1.48;;;;;;;;;;5069541;28;20028;-71
2022/04/25 13:31:36;;;;;;;5.53;1.50;;;;;;;;;;5069920;28;20067;-71
2022/04/25 13:34:01;;;;;;;4.18;1.52;;;;;;;;;;5069788;28;20057;-71
2022/04/25 13:36:27;;;;;;;4.10;1.73;;;;;;;;;;5069386;28;20025;-71
2022/04/25 13:38:55;;;;;;;9.50;1.50;;;;;;;;;;5069579;28;20035;-71
2022/04/25 13:41:20;;;;;;;5.60;1.80;;;;;;;;;;5069694;28;20041;-73
2022/04/25 13:43:49;;;;;;;5.13;1.60;;;;;;;;;;5069576;28;20030;-71
2022/04/25 13:46:15;;;;;;;6.03;1.70;;;;;;;;;;5069446;28;20032;-71
2022/04/25 13:48:41;;;;;;;5.32;1.83;;;;;;;;;;5069405;28;20051;-71
2022/04/25 13:51:07;;;;;;;4.22;1.70;;;;;;;;;;5069729;28;20024;-70
2022/04/25 13:53:34;;;;;;;5.93;1.73;;;;;;;;;;5069056;28;20040;-72
2022/04/25 13:56:02;;;;;;;4.53;1.60;;;;;;;;;;5069400;28;20476;-71
2022/04/25 13:58:28;;;;;;;5.53;1.80;;;;;;;;;;5069124;28;20020;-71
2022/04/25 14:00:53;;;;;;;5.47;1.42;;;;;;;;;;5069277;28;20446;-71
2022/04/25 14:03:19;;;;;;;5.88;1.70;;;;;;;;;;5068736;28;20247;-70
2022/04/25 14:05:46;;;;;;;5.43;1.80;;;;;;;;;;5069788;28;20537;-71
2022/04/25 14:08:13;;;;;;;3.72;1.55;;;;;;;;;;5067177;28;20075;-72
2022/04/25 14:10:41;;;;;;;4.18;1.55;;;;;;;;;;5080822;28;20326;-72
2022/04/25 14:13:08;;;;;;;4.90;1.90;;;;;;;;;;5079485;28;20235;-72
2022/04/25 14:15:39;;;;;;;6.25;2.00;;;;;;;;;;5079682;28;20066;-73
2022/04/25 14:18:05;;;;;;;5.90;1.70;;;;;;;;;;5080271;28;20224;-72
2022/04/25 14:20:31;;;;;;;6.32;1.75;;;;;;;;;;5080589;28;20064;-71
2022/04/25 14:23:03;;;;;;;6.07;1.92;;;;;;;;;;5073410;28;20032;-73
2022/04/25 14:25:30;;;;;;;5.05;1.80;;;;;;;;;;5056254;28;20020;-72
2022/04/25 14:27:58;;;;;;;4.88;2.03;;;;;;;;;;5067560;28;20051;-73
2022/04/25 14:30:25;;;;;;;5.32;1.60;;;;;;;;;;5071161;28;20316;-72
2022/04/25 14:32:51;;;;;;;9.95;1.90;;;;;;;;;;5071744;28;20349;-72
2022/04/25 14:35:17;;;;;;;4.28;1.90;;;;;;;;;;5067025;28;20369;-72
2022/04/25 14:37:43;;;;;;;3.95;1.80;;;;;;;;;;5066933;28;20028;-72
2022/04/25 14:40:09;;;;;;;4.00;1.75;;;;;;;;;;5066490;28;20016;-73
2022/04/25 14:42:34;;;;;;;6.20;2.00;;;;;;;;;;5066840;28;20029;-72
2022/04/25 14:45:01;;;;;;;7.97;2.00;;;;;;;;;;5050618;28;20294;-72
2022/04/25 14:47:27;;;;;;;5.38;1.70;;;;;;;;;;5068233;28;20162;-72
2022/04/25 14:55:21;;;;;;;7.85;1.80;;;;;;;;;;5058129;28;20423;-73
2022/04/25 14:57:51;;;;;;;6.38;1.92;;;;;;;;;;5069108;28;20547;-73
2022/04/25 15:00:21;;;;;;;7.67;2.07;;;;;;;;;;5068086;28;20021;-73
2022/04/25 15:02:47;;;;;;;7.07;2.17;;;;;;;;;;5068295;28;20319;-71
2022/04/25 15:05:13;;;;;;;5.97;2.05;;;;;;;;;;5068405;28;20025;-73
2022/04/25 15:07:38;;;;;;;6.47;2.40;;;;;;;;;;5070004;28;20031;-72
2022/04/25 15:10:04;;;;;;;10.05;2.30;;;;;;;;;;5069310;28;20097;-73
2022/04/25 15:12:30;;;;;;;7.75;2.42;;;;;;;;;;5068463;28;20115;-72
2022/04/25 15:14:56;;;;;;;8.95;3.17;;;;;;;;;;5068088;28;20135;-74
2022/04/25 15:17:21;;;;;;;7.97;2.67;;;;;;;;;;5068546;28;20028;-75
2022/04/25 15:19:47;;;;;;;5.47;2.20;;;;;;;;;;5069366;28;20108;-69
2022/04/25 15:22:12;;;;;;;6.85;2.33;;;;;;;;;;5071789;28;20181;-67
2022/04/25 15:24:38;;;;;;;6.55;2.17;;;;;;;;;;5068323;28;20071;-68
2022/04/25 15:27:04;;;;;;;4.63;1.80;;;;;;;;;;5070197;28;20024;-68